Auburn, ME

4:20 PM EDT on September 30, 2014 (GMT -0400)
Riverside | Change Station
CLOSE
Current Station
Personal Weather Station
Location: Lewiston, ME
Elevation: 217 ft
Nearby Weather Stations

Elev 217 ft 44.11 °N, 70.21 °W | Updated 4 seconds ago

Overcast
Overcast
61.4 °F
Feels Like 61.4 °F
N
0.0
Wind Variable Wind from South
Gusts 0.0 mph

Today
High -- | Low -- °F
--% Chance of Precip.
Yesterday
High -- | Low -- °F
Precip. -- in
6:37 AM 6:23 PM
Waxing Crescent, 39% visible
Pressure 30.04 in
Visibility 10.0 miles
Clouds Overcast 1900 ft
Dew Point 52 °F
Humidity 70%
Rainfall 0.00 in
Snow Depth Not available.
UV 1 out of 12
Pollen .60 out of 12
PM2.5 Good
Flu Activity Not available.
METAR KLEW 301955Z AUTO 05006KT 10SM OVC019 16/11 A3004 RMK AO1

More Conditions Fewer Conditions

Pressure 30.04 in
Visibility 10.0 miles
Clouds Overcast 1900 ft
Dew Point 52 °F
Humidity 70%
Rainfall 0.00 in
Snow Depth Not available.
UV 1 out of 12
Pollen .60 out of 12
PM2.5 Good
Flu Activity Not available.
METAR KLEW 301955Z AUTO 05006KT 10SM OVC019 16/11 A3004 RMK AO1

More Conditions Fewer Conditions

10-Day Weather Forecast

Almanac

Astronomy

Sep. 30, 2014 Rise Set
Actual Time 6:37 AM EDT 6:23 PM EDT
Civil Twilight 6:08 AM EDT 6:52 PM EDT
Nautical Twilight 5:35 AM EDT 7:25 PM EDT
Astronomical Twilight 5:00 AM EDT 7:59 PM EDT
Moon 12:52 PM EDT 10:41 PM EDT
Length of Visible Light 12h 43m
Length of Day
11h 46m
Tomorrow will be 3m 0s shorter.
Waxing Crescent, 39% of the Moon is Illuminated
Today
Waxing Crescent
Oct 1
First Quarter
Oct 8
Full
Oct 15
Last Quarter
Oct 23
New

Today's Extremes

State Highs State Lows

Community

WunderPhotos

Upload Photos

1,757,740 photos uploaded!

Nearby

Air Quality

  Air Quality AQ Index Pollutant
Yesterday Good
PM2.5
Current Good
PM2.5
Tuesday Good
OZONE
Tuesday Good
PM2.5
Wednesday Good
OZONE
Wednesday Good
PM2.5
Thursday Good
OZONE
Thursday Good
PM2.5
Friday Good
OZONE
Friday Good
PM2.5
Saturday Good
OZONE
Saturday Good
PM2.5

Snow Depth

Station Depth Elevation
No new snow has been reported.

Earthquake Activity

City Distance Mag. Time & Date
No recent earthquake activity has been reported nearby.
Minimum magnitude displayed is 2.5.

Coastal Water Temperatures

Place Temperature
Portland, ME 57.9 °F
Wells, ME 57.0 °F

Nearby Weather Stations